sensor_id;sensor_type;location;lat;lon;timestamp;temperature;humidity
16893;DHT22;8563;52.242;9.098;2022-09-09T00:00:48;14.50;99.90
16893;DHT22;8563;52.242;9.098;2022-09-09T00:03:26;14.50;99.90
16893;DHT22;8563;52.242;9.098;2022-09-09T00:06:03;14.40;99.90
16893;DHT22;8563;52.242;9.098;2022-09-09T00:08:42;14.40;99.90
16893;DHT22;8563;52.242;9.098;2022-09-09T00:11:22;14.40;99.90
16893;DHT22;8563;52.242;9.098;2022-09-09T00:13:57;14.40;99.90
16893;DHT22;8563;52.242;9.098;2022-09-09T00:16:35;14.40;99.90
16893;DHT22;8563;52.242;9.098;2022-09-09T00:19:15;14.40;99.90
16893;DHT22;8563;52.242;9.098;2022-09-09T00:22:00;14.40;99.90
16893;DHT22;8563;52.242;9.098;2022-09-09T00:24:41;14.40;99.90
16893;DHT22;8563;52.242;9.098;2022-09-09T00:27:21;14.50;99.90
16893;DHT22;8563;52.242;9.098;2022-09-09T00:30:00;14.50;99.90
16893;DHT22;8563;52.242;9.098;2022-09-09T00:32:33;14.50;99.90
16893;DHT22;8563;52.242;9.098;2022-09-09T00:35:17;14.40;99.90
16893;DHT22;8563;52.242;9.098;2022-09-09T00:37:53;14.40;99.90
16893;DHT22;8563;52.242;9.098;2022-09-09T00:40:31;14.40;99.90
16893;DHT22;8563;52.242;9.098;2022-09-09T00:43:16;14.40;99.90
16893;DHT22;8563;52.242;9.098;2022-09-09T00:49:29;14.40;99.90
16893;DHT22;8563;52.242;9.098;2022-09-09T00:52:19;14.40;99.90
16893;DHT22;8563;52.242;9.098;2022-09-09T00:55:03;14.40;99.90
16893;DHT22;8563;52.242;9.098;2022-09-09T00:57:38;14.40;99.90
16893;DHT22;8563;52.242;9.098;2022-09-09T01:00:21;14.40;99.90
16893;DHT22;8563;52.242;9.098;2022-09-09T01:03:04;14.40;99.90
16893;DHT22;8563;52.242;9.098;2022-09-09T01:05:45;14.40;99.90
16893;DHT22;8563;52.242;9.098;2022-09-09T01:08:38;14.30;99.90
16893;DHT22;8563;52.242;9.098;2022-09-09T01:11:17;14.30;99.90
16893;DHT22;8563;52.242;9.098;2022-09-09T01:13:56;14.40;99.90
16893;DHT22;8563;52.242;9.098;2022-09-09T01:16:34;14.30;99.90
16893;DHT22;8563;52.242;9.098;2022-09-09T01:19:10;14.40;99.90
16893;DHT22;8563;52.242;9.098;2022-09-09T01:21:53;14.40;99.90
16893;DHT22;8563;52.242;9.098;2022-09-09T01:24:36;14.40;99.90
16893;DHT22;8563;52.242;9.098;2022-09-09T01:27:33;14.50;99.90
16893;DHT22;8563;52.242;9.098;2022-09-09T01:30:09;14.50;99.90
16893;DHT22;8563;52.242;9.098;2022-09-09T01:32:43;14.50;99.90
16893;DHT22;8563;52.242;9.098;2022-09-09T01:35:24;14.40;99.90
16893;DHT22;8563;52.242;9.098;2022-09-09T01:38:00;14.40;99.90
16893;DHT22;8563;52.242;9.098;2022-09-09T01:40:32;14.40;99.90
16893;DHT22;8563;52.242;9.098;2022-09-09T01:43:06;14.40;99.90
16893;DHT22;8563;52.242;9.098;2022-09-09T01:45:41;14.40;99.90
16893;DHT22;8563;52.242;9.098;2022-09-09T01:48:15;14.40;99.90
16893;DHT22;8563;52.242;9.098;2022-09-09T01:50:54;14.40;99.90
16893;DHT22;8563;52.242;9.098;2022-09-09T01:53:27;14.40;99.90
16893;DHT22;8563;52.242;9.098;2022-09-09T01:56:07;14.40;99.90
16893;DHT22;8563;52.242;9.098;2022-09-09T02:01:55;14.40;99.90
16893;DHT22;8563;52.242;9.098;2022-09-09T02:04:37;14.40;99.90
16893;DHT22;8563;52.242;9.098;2022-09-09T02:07:33;14.50;99.90
16893;DHT22;8563;52.242;9.098;2022-09-09T02:10:13;14.50;99.90
16893;DHT22;8563;52.242;9.098;2022-09-09T02:13:03;14.50;99.90
16893;DHT22;8563;52.242;9.098;2022-09-09T02:15:42;14.60;99.90
16893;DHT22;8563;52.242;9.098;2022-09-09T02:18:20;14.60;99.90
16893;DHT22;8563;52.242;9.098;2022-09-09T02:20:56;14.60;99.90
16893;DHT22;8563;52.242;9.098;2022-09-09T02:23:32;14.60;99.90
16893;DHT22;8563;52.242;9.098;2022-09-09T02:26:17;14.70;99.90
16893;DHT22;8563;52.242;9.098;2022-09-09T02:29:00;14.60;99.90
16893;DHT22;8563;52.242;9.098;2022-09-09T02:31:34;14.70;99.90
16893;DHT22;8563;52.242;9.098;2022-09-09T02:34:18;14.70;99.90
16893;DHT22;8563;52.242;9.098;2022-09-09T02:36:54;14.80;99.90
16893;DHT22;8563;52.242;9.098;2022-09-09T02:39:27;14.90;99.90
16893;DHT22;8563;52.242;9.098;2022-09-09T02:41:59;14.90;99.90
16893;DHT22;8563;52.242;9.098;2022-09-09T02:44:36;15.00;99.90
16893;DHT22;8563;52.242;9.098;2022-09-09T02:47:24;15.00;99.90
16893;DHT22;8563;52.242;9.098;2022-09-09T02:50:11;15.00;99.90
16893;DHT22;8563;52.242;9.098;2022-09-09T02:52:58;15.10;99.90
16893;DHT22;8563;52.242;9.098;2022-09-09T02:55:38;15.10;99.90
16893;DHT22;8563;52.242;9.098;2022-09-09T02:58:16;15.10;99.90
16893;DHT22;8563;52.242;9.098;2022-09-09T03:00:57;15.10;99.90
16893;DHT22;8563;52.242;9.098;2022-09-09T03:03:32;15.10;99.90
16893;DHT22;8563;52.242;9.098;2022-09-09T03:06:11;15.00;99.90
16893;DHT22;8563;52.242;9.098;2022-09-09T03:08:48;15.00;99.90
16893;DHT22;8563;52.242;9.098;2022-09-09T03:11:26;15.00;99.90
16893;DHT22;8563;52.242;9.098;2022-09-09T03:13:59;15.00;99.90
16893;DHT22;8563;52.242;9.098;2022-09-09T03:16:35;15.00;99.90
16893;DHT22;8563;52.242;9.098;2022-09-09T03:19:30;15.00;99.90
16893;DHT22;8563;52.242;9.098;2022-09-09T03:22:04;15.00;99.90
16893;DHT22;8563;52.242;9.098;2022-09-09T03:24:40;15.00;99.90
16893;DHT22;8563;52.242;9.098;2022-09-09T03:27:16;15.00;99.90
16893;DHT22;8563;52.242;9.098;2022-09-09T03:29:50;15.00;99.90
16893;DHT22;8563;52.242;9.098;2022-09-09T03:32:27;14.90;99.90
16893;DHT22;8563;52.242;9.098;2022-09-09T03:35:01;14.90;99.90
16893;DHT22;8563;52.242;9.098;2022-09-09T03:37:36;14.80;99.90
16893;DHT22;8563;52.242;9.098;2022-09-09T03:40:10;14.80;99.90
16893;DHT22;8563;52.242;9.098;2022-09-09T03:42:43;14.80;99.90
16893;DHT22;8563;52.242;9.098;2022-09-09T03:45:15;14.80;99.90
16893;DHT22;8563;52.242;9.098;2022-09-09T03:47:48;14.90;99.90
16893;DHT22;8563;52.242;9.098;2022-09-09T03:50:21;14.90;99.90
16893;DHT22;8563;52.242;9.098;2022-09-09T03:52:58;14.90;99.90
16893;DHT22;8563;52.242;9.098;2022-09-09T03:55:31;15.00;99.90
16893;DHT22;8563;52.242;9.098;2022-09-09T03:58:04;15.00;99.90
16893;DHT22;8563;52.242;9.098;2022-09-09T04:00:37;15.00;99.90
16893;DHT22;8563;52.242;9.098;2022-09-09T04:03:13;15.00;99.90
16893;DHT22;8563;52.242;9.098;2022-09-09T04:05:48;15.00;99.90
16893;DHT22;8563;52.242;9.098;2022-09-09T04:08:24;15.10;99.90
16893;DHT22;8563;52.242;9.098;2022-09-09T04:10:58;15.10;99.90
16893;DHT22;8563;52.242;9.098;2022-09-09T04:13:33;15.10;99.90
16893;DHT22;8563;52.242;9.098;2022-09-09T04:16:10;15.10;99.90
16893;DHT22;8563;52.242;9.098;2022-09-09T04:18:45;15.10;99.90
16893;DHT22;8563;52.242;9.098;2022-09-09T04:21:20;15.10;99.90
16893;DHT22;8563;52.242;9.098;2022-09-09T04:23:54;15.10;99.90
16893;DHT22;8563;52.242;9.098;2022-09-09T04:26:26;15.10;99.90
16893;DHT22;8563;52.242;9.098;2022-09-09T04:29:02;15.10;99.90
16893;DHT22;8563;52.242;9.098;2022-09-09T04:31:35;15.10;99.90
16893;DHT22;8563;52.242;9.098;2022-09-09T04:34:11;15.10;99.90
16893;DHT22;8563;52.242;9.098;2022-09-09T04:36:44;15.10;99.90
16893;DHT22;8563;52.242;9.098;2022-09-09T04:39:18;15.20;99.90
16893;DHT22;8563;52.242;9.098;2022-09-09T04:41:50;15.20;99.90
16893;DHT22;8563;52.242;9.098;2022-09-09T04:44:22;15.20;99.90
16893;DHT22;8563;52.242;9.098;2022-09-09T04:46:55;15.20;99.90
16893;DHT22;8563;52.242;9.098;2022-09-09T04:49:29;15.20;99.90
16893;DHT22;8563;52.242;9.098;2022-09-09T04:52:03;15.20;99.90
16893;DHT22;8563;52.242;9.098;2022-09-09T04:54:40;15.20;99.90
16893;DHT22;8563;52.242;9.098;2022-09-09T04:57:12;15.20;99.90
16893;DHT22;8563;52.242;9.098;2022-09-09T04:59:45;15.20;99.90
16893;DHT22;8563;52.242;9.098;2022-09-09T05:02:19;15.20;99.90
16893;DHT22;8563;52.242;9.098;2022-09-09T05:04:52;15.20;99.90
16893;DHT22;8563;52.242;9.098;2022-09-09T05:07:24;15.20;99.90
16893;DHT22;8563;52.242;9.098;2022-09-09T05:10:01;15.20;99.90
16893;DHT22;8563;52.242;9.098;2022-09-09T05:12:37;15.20;99.90
16893;DHT22;8563;52.242;9.098;2022-09-09T05:15:10;15.20;99.90
16893;DHT22;8563;52.242;9.098;2022-09-09T05:17:42;15.20;99.90
16893;DHT22;8563;52.242;9.098;2022-09-09T05:20:15;15.20;99.90
16893;DHT22;8563;52.242;9.098;2022-09-09T05:22:48;15.20;99.90
16893;DHT22;8563;52.242;9.098;2022-09-09T05:25:22;15.20;99.90
16893;DHT22;8563;52.242;9.098;2022-09-09T05:27:58;15.30;99.90
16893;DHT22;8563;52.242;9.098;2022-09-09T05:30:33;15.30;99.90
16893;DHT22;8563;52.242;9.098;2022-09-09T05:33:09;15.40;99.90
16893;DHT22;8563;52.242;9.098;2022-09-09T05:35:42;15.50;99.90
16893;DHT22;8563;52.242;9.098;2022-09-09T05:38:15;15.50;99.90
16893;DHT22;8563;52.242;9.098;2022-09-09T05:40:51;15.60;99.90
16893;DHT22;8563;52.242;9.098;2022-09-09T05:43:24;15.70;99.90
16893;DHT22;8563;52.242;9.098;2022-09-09T05:46:00;15.70;99.90
16893;DHT22;8563;52.242;9.098;2022-09-09T05:48:35;15.70;99.90
16893;DHT22;8563;52.242;9.098;2022-09-09T05:51:10;15.70;99.90
16893;DHT22;8563;52.242;9.098;2022-09-09T05:53:44;15.60;99.90
16893;DHT22;8563;52.242;9.098;2022-09-09T05:56:20;15.60;99.90
16893;DHT22;8563;52.242;9.098;2022-09-09T05:58:56;15.60;99.90
16893;DHT22;8563;52.242;9.098;2022-09-09T06:01:33;15.60;99.90
16893;DHT22;8563;52.242;9.098;2022-09-09T06:04:07;15.60;99.90
16893;DHT22;8563;52.242;9.098;2022-09-09T06:06:40;15.60;99.90
16893;DHT22;8563;52.242;9.098;2022-09-09T06:09:22;15.70;99.90
16893;DHT22;8563;52.242;9.098;2022-09-09T06:11:56;15.70;99.90
16893;DHT22;8563;52.242;9.098;2022-09-09T06:14:30;15.80;99.90
16893;DHT22;8563;52.242;9.098;2022-09-09T06:17:04;15.80;99.90
16893;DHT22;8563;52.242;9.098;2022-09-09T06:19:37;15.80;99.90
16893;DHT22;8563;52.242;9.098;2022-09-09T06:22:11;15.80;99.90
16893;DHT22;8563;52.242;9.098;2022-09-09T06:24:46;15.90;99.90
16893;DHT22;8563;52.242;9.098;2022-09-09T06:27:21;15.90;99.90
16893;DHT22;8563;52.242;9.098;2022-09-09T06:29:53;16.00;99.90
16893;DHT22;8563;52.242;9.098;2022-09-09T06:32:26;16.10;99.90
16893;DHT22;8563;52.242;9.098;2022-09-09T06:34:59;16.20;99.90
16893;DHT22;8563;52.242;9.098;2022-09-09T06:37:32;16.30;99.90
16893;DHT22;8563;52.242;9.098;2022-09-09T06:40:06;16.40;99.90
16893;DHT22;8563;52.242;9.098;2022-09-09T06:42:41;16.70;99.90
16893;DHT22;8563;52.242;9.098;2022-09-09T06:45:39;16.80;99.90
16893;DHT22;8563;52.242;9.098;2022-09-09T06:48:12;17.10;99.90
16893;DHT22;8563;52.242;9.098;2022-09-09T06:50:45;17.20;99.90
16893;DHT22;8563;52.242;9.098;2022-09-09T06:53:18;17.40;99.90
16893;DHT22;8563;52.242;9.098;2022-09-09T06:55:52;17.60;99.90
16893;DHT22;8563;52.242;9.098;2022-09-09T06:58:27;17.70;99.90
16893;DHT22;8563;52.242;9.098;2022-09-09T07:01:03;17.90;99.90
16893;DHT22;8563;52.242;9.098;2022-09-09T07:03:37;18.00;99.90
16893;DHT22;8563;52.242;9.098;2022-09-09T07:06:16;18.00;99.90
16893;DHT22;8563;52.242;9.098;2022-09-09T07:08:50;18.10;99.90
16893;DHT22;8563;52.242;9.098;2022-09-09T07:11:25;18.00;99.90
16893;DHT22;8563;52.242;9.098;2022-09-09T07:14:00;17.90;99.90
16893;DHT22;8563;52.242;9.098;2022-09-09T07:16:34;17.90;99.90
16893;DHT22;8563;52.242;9.098;2022-09-09T07:19:08;17.90;99.90
16893;DHT22;8563;52.242;9.098;2022-09-09T07:21:42;17.80;99.90
16893;DHT22;8563;52.242;9.098;2022-09-09T07:24:17;17.90;99.90
16893;DHT22;8563;52.242;9.098;2022-09-09T07:26:51;17.90;99.90
16893;DHT22;8563;52.242;9.098;2022-09-09T07:29:25;18.10;99.90
16893;DHT22;8563;52.242;9.098;2022-09-09T07:31:58;18.20;99.90
16893;DHT22;8563;52.242;9.098;2022-09-09T07:34:36;18.20;99.90
16893;DHT22;8563;52.242;9.098;2022-09-09T07:37:08;18.40;99.90
16893;DHT22;8563;52.242;9.098;2022-09-09T07:39:44;18.60;99.60
16893;DHT22;8563;52.242;9.098;2022-09-09T07:42:17;18.60;99.00
16893;DHT22;8563;52.242;9.098;2022-09-09T07:44:52;18.70;99.00
16893;DHT22;8563;52.242;9.098;2022-09-09T07:47:26;18.80;98.90
16893;DHT22;8563;52.242;9.098;2022-09-09T07:49:58;18.90;98.60
16893;DHT22;8563;52.242;9.098;2022-09-09T07:52:35;18.90;97.90
16893;DHT22;8563;52.242;9.098;2022-09-09T07:55:10;18.90;98.10
16893;DHT22;8563;52.242;9.098;2022-09-09T07:57:43;18.80;98.30
16893;DHT22;8563;52.242;9.098;2022-09-09T08:00:17;18.90;97.90
16893;DHT22;8563;52.242;9.098;2022-09-09T08:02:57;18.90;97.60
16893;DHT22;8563;52.242;9.098;2022-09-09T08:05:33;19.00;97.30
16893;DHT22;8563;52.242;9.098;2022-09-09T08:08:06;19.00;97.30
16893;DHT22;8563;52.242;9.098;2022-09-09T08:10:40;19.10;97.20
16893;DHT22;8563;52.242;9.098;2022-09-09T08:13:12;19.20;96.50
16893;DHT22;8563;52.242;9.098;2022-09-09T08:15:47;19.20;96.20
16893;DHT22;8563;52.242;9.098;2022-09-09T08:18:21;19.20;96.10
16893;DHT22;8563;52.242;9.098;2022-09-09T08:20:54;19.30;96.30
16893;DHT22;8563;52.242;9.098;2022-09-09T08:23:27;19.30;95.50
16893;DHT22;8563;52.242;9.098;2022-09-09T08:26:04;19.40;96.10
16893;DHT22;8563;52.242;9.098;2022-09-09T08:28:37;19.50;95.90
16893;DHT22;8563;52.242;9.098;2022-09-09T08:31:15;19.50;95.40
16893;DHT22;8563;52.242;9.098;2022-09-09T08:33:48;19.60;95.40
16893;DHT22;8563;52.242;9.098;2022-09-09T08:36:22;19.50;95.70
16893;DHT22;8563;52.242;9.098;2022-09-09T08:38:57;19.50;95.80
16893;DHT22;8563;52.242;9.098;2022-09-09T08:42:00;19.50;95.40
16893;DHT22;8563;52.242;9.098;2022-09-09T08:44:55;19.60;95.40
16893;DHT22;8563;52.242;9.098;2022-09-09T08:47:35;19.60;95.20
16893;DHT22;8563;52.242;9.098;2022-09-09T08:50:21;19.60;94.60
16893;DHT22;8563;52.242;9.098;2022-09-09T08:53:02;19.60;95.30
16893;DHT22;8563;52.242;9.098;2022-09-09T08:55:41;19.60;95.50
16893;DHT22;8563;52.242;9.098;2022-09-09T08:58:17;19.60;95.40
16893;DHT22;8563;52.242;9.098;2022-09-09T09:01:02;19.50;95.50
16893;DHT22;8563;52.242;9.098;2022-09-09T09:03:46;19.50;95.40
16893;DHT22;8563;52.242;9.098;2022-09-09T09:06:36;19.50;95.50
16893;DHT22;8563;52.242;9.098;2022-09-09T09:09:21;19.50;95.70
16893;DHT22;8563;52.242;9.098;2022-09-09T09:11:57;19.60;95.60
16893;DHT22;8563;52.242;9.098;2022-09-09T09:14:36;19.80;95.00
16893;DHT22;8563;52.242;9.098;2022-09-09T09:17:14;19.80;94.70
16893;DHT22;8563;52.242;9.098;2022-09-09T09:19:49;19.90;94.50
16893;DHT22;8563;52.242;9.098;2022-09-09T09:22:23;20.10;93.80
16893;DHT22;8563;52.242;9.098;2022-09-09T09:25:11;20.20;93.60
16893;DHT22;8563;52.242;9.098;2022-09-09T09:27:56;20.50;93.00
16893;DHT22;8563;52.242;9.098;2022-09-09T09:30:36;20.90;92.40
16893;DHT22;8563;52.242;9.098;2022-09-09T09:33:17;21.20;92.30
16893;DHT22;8563;52.242;9.098;2022-09-09T09:35:52;21.30;91.70
16893;DHT22;8563;52.242;9.098;2022-09-09T09:38:28;21.00;91.60
16893;DHT22;8563;52.242;9.098;2022-09-09T09:41:04;21.00;91.70
16893;DHT22;8563;52.242;9.098;2022-09-09T09:43:40;20.90;91.90
16893;DHT22;8563;52.242;9.098;2022-09-09T09:46:20;20.70;92.10
16893;DHT22;8563;52.242;9.098;2022-09-09T09:48:59;20.60;92.80
16893;DHT22;8563;52.242;9.098;2022-09-09T09:51:34;20.50;92.70
16893;DHT22;8563;52.242;9.098;2022-09-09T09:54:17;20.30;92.60
16893;DHT22;8563;52.242;9.098;2022-09-09T09:56:58;20.50;92.30
16893;DHT22;8563;52.242;9.098;2022-09-09T09:59:41;20.80;91.50
16893;DHT22;8563;52.242;9.098;2022-09-09T10:02:23;20.90;91.20
16893;DHT22;8563;52.242;9.098;2022-09-09T10:05:15;21.10;91.30
16893;DHT22;8563;52.242;9.098;2022-09-09T10:08:08;21.40;90.40
16893;DHT22;8563;52.242;9.098;2022-09-09T10:13:40;21.30;90.30
16893;DHT22;8563;52.242;9.098;2022-09-09T10:16:25;21.50;90.50
16893;DHT22;8563;52.242;9.098;2022-09-09T10:19:04;22.00;87.40
16893;DHT22;8563;52.242;9.098;2022-09-09T10:25:02;22.50;85.30
16893;DHT22;8563;52.242;9.098;2022-09-09T10:27:49;22.70;83.30
16893;DHT22;8563;52.242;9.098;2022-09-09T10:30:25;22.70;82.90
16893;DHT22;8563;52.242;9.098;2022-09-09T10:33:07;22.70;81.70
16893;DHT22;8563;52.242;9.098;2022-09-09T10:35:47;22.80;82.20
16893;DHT22;8563;52.242;9.098;2022-09-09T10:38:28;22.70;81.50
16893;DHT22;8563;52.242;9.098;2022-09-09T10:41:17;22.50;80.80
16893;DHT22;8563;52.242;9.098;2022-09-09T10:44:22;22.30;81.60
16893;DHT22;8563;52.242;9.098;2022-09-09T10:50:18;22.40;81.00
16893;DHT22;8563;52.242;9.098;2022-09-09T10:53:00;22.20;80.90
16893;DHT22;8563;52.242;9.098;2022-09-09T10:55:38;22.00;81.70
16893;DHT22;8563;52.242;9.098;2022-09-09T10:58:17;21.60;83.00
16893;DHT22;8563;52.242;9.098;2022-09-09T11:00:54;21.30;84.60
16893;DHT22;8563;52.242;9.098;2022-09-09T11:03:29;21.00;86.50
16893;DHT22;8563;52.242;9.098;2022-09-09T11:06:05;20.70;87.30
16893;DHT22;8563;52.242;9.098;2022-09-09T11:08:41;20.50;88.50
16893;DHT22;8563;52.242;9.098;2022-09-09T11:11:18;20.30;90.10
16893;DHT22;8563;52.242;9.098;2022-09-09T11:13:58;20.20;90.30
16893;DHT22;8563;52.242;9.098;2022-09-09T11:16:39;20.10;91.20
16893;DHT22;8563;52.242;9.098;2022-09-09T11:19:19;20.20;91.60
16893;DHT22;8563;52.242;9.098;2022-09-09T11:21:52;20.30;92.30
16893;DHT22;8563;52.242;9.098;2022-09-09T11:24:29;20.50;93.00
16893;DHT22;8563;52.242;9.098;2022-09-09T11:27:10;20.70;92.70
16893;DHT22;8563;52.242;9.098;2022-09-09T11:30:11;21.00;90.60
16893;DHT22;8563;52.242;9.098;2022-09-09T11:33:02;21.30;88.40
16893;DHT22;8563;52.242;9.098;2022-09-09T11:35:46;21.50;90.30
16893;DHT22;8563;52.242;9.098;2022-09-09T11:38:26;21.60;89.60
16893;DHT22;8563;52.242;9.098;2022-09-09T11:41:00;21.60;88.70
16893;DHT22;8563;52.242;9.098;2022-09-09T11:43:39;21.60;89.30
16893;DHT22;8563;52.242;9.098;2022-09-09T11:46:15;21.60;88.70
16893;DHT22;8563;52.242;9.098;2022-09-09T11:48:59;21.70;88.30
16893;DHT22;8563;52.242;9.098;2022-09-09T11:51:32;21.80;87.60
16893;DHT22;8563;52.242;9.098;2022-09-09T11:54:30;21.80;88.00
16893;DHT22;8563;52.242;9.098;2022-09-09T11:57:03;21.80;89.50
16893;DHT22;8563;52.242;9.098;2022-09-09T11:59:36;21.90;88.80
16893;DHT22;8563;52.242;9.098;2022-09-09T12:02:16;21.80;88.50
16893;DHT22;8563;52.242;9.098;2022-09-09T12:04:57;21.90;87.10
16893;DHT22;8563;52.242;9.098;2022-09-09T12:07:36;22.00;87.10
16893;DHT22;8563;52.242;9.098;2022-09-09T12:10:22;22.10;84.30
16893;DHT22;8563;52.242;9.098;2022-09-09T12:13:06;21.90;82.60
16893;DHT22;8563;52.242;9.098;2022-09-09T12:15:48;21.80;83.20
16893;DHT22;8563;52.242;9.098;2022-09-09T12:18:25;22.00;83.00
16893;DHT22;8563;52.242;9.098;2022-09-09T12:21:05;21.90;82.70
16893;DHT22;8563;52.242;9.098;2022-09-09T12:23:43;21.90;84.80
16893;DHT22;8563;52.242;9.098;2022-09-09T12:26:27;22.10;80.60
16893;DHT22;8563;52.242;9.098;2022-09-09T12:29:12;22.20;80.60
16893;DHT22;8563;52.242;9.098;2022-09-09T12:31:50;22.40;79.00
16893;DHT22;8563;52.242;9.098;2022-09-09T12:34:35;22.40;79.00
16893;DHT22;8563;52.242;9.098;2022-09-09T12:37:17;22.30;78.20
16893;DHT22;8563;52.242;9.098;2022-09-09T12:39:55;22.30;79.00
16893;DHT22;8563;52.242;9.098;2022-09-09T12:42:27;22.00;77.60
16893;DHT22;8563;52.242;9.098;2022-09-09T12:45:02;22.00;77.40
16893;DHT22;8563;52.242;9.098;2022-09-09T12:47:39;21.90;78.00
16893;DHT22;8563;52.242;9.098;2022-09-09T12:50:20;21.90;78.70
16893;DHT22;8563;52.242;9.098;2022-09-09T12:52:55;22.00;78.40
16893;DHT22;8563;52.242;9.098;2022-09-09T12:55:31;22.20;78.80
16893;DHT22;8563;52.242;9.098;2022-09-09T12:58:05;22.30;77.80
16893;DHT22;8563;52.242;9.098;2022-09-09T13:00:49;22.30;78.50
16893;DHT22;8563;52.242;9.098;2022-09-09T13:03:23;22.20;77.40
16893;DHT22;8563;52.242;9.098;2022-09-09T13:06:10;22.00;77.70
16893;DHT22;8563;52.242;9.098;2022-09-09T13:08:44;21.60;76.00
16893;DHT22;8563;52.242;9.098;2022-09-09T13:11:20;21.50;77.20
16893;DHT22;8563;52.242;9.098;2022-09-09T13:13:55;21.60;77.40
16893;DHT22;8563;52.242;9.098;2022-09-09T13:16:29;21.90;76.40
16893;DHT22;8563;52.242;9.098;2022-09-09T13:19:13;21.80;76.80
16893;DHT22;8563;52.242;9.098;2022-09-09T13:21:48;21.80;76.50
16893;DHT22;8563;52.242;9.098;2022-09-09T13:24:27;21.90;77.70
16893;DHT22;8563;52.242;9.098;2022-09-09T13:27:02;21.90;77.10
16893;DHT22;8563;52.242;9.098;2022-09-09T13:29:35;21.90;76.10
16893;DHT22;8563;52.242;9.098;2022-09-09T13:32:17;22.00;76.00
16893;DHT22;8563;52.242;9.098;2022-09-09T13:34:54;21.90;73.10
16893;DHT22;8563;52.242;9.098;2022-09-09T13:37:32;21.90;74.20
16893;DHT22;8563;52.242;9.098;2022-09-09T13:40:14;21.80;71.60
16893;DHT22;8563;52.242;9.098;2022-09-09T13:42:52;21.70;72.30
16893;DHT22;8563;52.242;9.098;2022-09-09T13:45:26;21.60;73.10
16893;DHT22;8563;52.242;9.098;2022-09-09T13:48:09;21.60;72.60
16893;DHT22;8563;52.242;9.098;2022-09-09T13:50:41;21.50;72.30
16893;DHT22;8563;52.242;9.098;2022-09-09T13:53:16;21.40;73.70
16893;DHT22;8563;52.242;9.098;2022-09-09T13:55:48;21.30;73.40
16893;DHT22;8563;52.242;9.098;2022-09-09T13:58:22;21.20;74.70
16893;DHT22;8563;52.242;9.098;2022-09-09T14:00:55;21.20;75.60
16893;DHT22;8563;52.242;9.098;2022-09-09T14:03:28;21.20;76.30
16893;DHT22;8563;52.242;9.098;2022-09-09T14:06:01;21.20;76.70
16893;DHT22;8563;52.242;9.098;2022-09-09T14:08:35;21.30;76.10
16893;DHT22;8563;52.242;9.098;2022-09-09T14:11:12;21.30;76.40
16893;DHT22;8563;52.242;9.098;2022-09-09T14:13:45;21.40;76.30
16893;DHT22;8563;52.242;9.098;2022-09-09T14:16:18;21.50;75.90
16893;DHT22;8563;52.242;9.098;2022-09-09T14:18:51;21.50;74.80
16893;DHT22;8563;52.242;9.098;2022-09-09T14:21:24;21.60;75.30
16893;DHT22;8563;52.242;9.098;2022-09-09T14:23:58;21.80;75.50
16893;DHT22;8563;52.242;9.098;2022-09-09T14:26:31;21.90;75.10
16893;DHT22;8563;52.242;9.098;2022-09-09T14:29:03;22.10;78.00
16893;DHT22;8563;52.242;9.098;2022-09-09T14:31:36;22.00;79.90
16893;DHT22;8563;52.242;9.098;2022-09-09T14:34:08;22.00;81.00
16893;DHT22;8563;52.242;9.098;2022-09-09T14:36:42;22.00;81.30
16893;DHT22;8563;52.242;9.098;2022-09-09T14:39:17;21.90;82.20
16893;DHT22;8563;52.242;9.098;2022-09-09T14:41:50;22.00;78.20
16893;DHT22;8563;52.242;9.098;2022-09-09T14:44:24;22.00;76.20
16893;DHT22;8563;52.242;9.098;2022-09-09T14:46:56;22.10;72.00
16893;DHT22;8563;52.242;9.098;2022-09-09T14:49:29;22.20;71.80
16893;DHT22;8563;52.242;9.098;2022-09-09T14:52:02;22.20;70.80
16893;DHT22;8563;52.242;9.098;2022-09-09T14:54:36;22.30;68.90
16893;DHT22;8563;52.242;9.098;2022-09-09T14:57:09;22.30;69.60
16893;DHT22;8563;52.242;9.098;2022-09-09T14:59:41;22.50;68.60
16893;DHT22;8563;52.242;9.098;2022-09-09T15:02:13;22.60;69.00
16893;DHT22;8563;52.242;9.098;2022-09-09T15:04:46;22.60;69.00
16893;DHT22;8563;52.242;9.098;2022-09-09T15:07:20;22.60;69.00
16893;DHT22;8563;52.242;9.098;2022-09-09T15:09:54;22.50;68.40
16893;DHT22;8563;52.242;9.098;2022-09-09T15:12:27;22.40;68.70
16893;DHT22;8563;52.242;9.098;2022-09-09T15:15:00;22.40;69.20
16893;DHT22;8563;52.242;9.098;2022-09-09T15:17:32;22.30;70.00
16893;DHT22;8563;52.242;9.098;2022-09-09T15:20:07;22.30;70.00
16893;DHT22;8563;52.242;9.098;2022-09-09T15:22:41;22.20;70.50
16893;DHT22;8563;52.242;9.098;2022-09-09T15:25:15;22.10;71.10
16893;DHT22;8563;52.242;9.098;2022-09-09T15:27:48;22.00;71.60
16893;DHT22;8563;52.242;9.098;2022-09-09T15:30:21;21.90;71.00
16893;DHT22;8563;52.242;9.098;2022-09-09T15:32:53;21.80;72.10
16893;DHT22;8563;52.242;9.098;2022-09-09T15:35:26;21.80;72.40
16893;DHT22;8563;52.242;9.098;2022-09-09T15:38:02;21.90;72.80
16893;DHT22;8563;52.242;9.098;2022-09-09T15:40:37;21.90;73.80
16893;DHT22;8563;52.242;9.098;2022-09-09T15:43:09;21.90;72.70
16893;DHT22;8563;52.242;9.098;2022-09-09T15:45:46;21.80;72.80
16893;DHT22;8563;52.242;9.098;2022-09-09T15:48:18;21.60;73.50
16893;DHT22;8563;52.242;9.098;2022-09-09T15:51:01;21.50;74.10
16893;DHT22;8563;52.242;9.098;2022-09-09T15:53:34;21.40;75.00
16893;DHT22;8563;52.242;9.098;2022-09-09T15:56:09;21.30;74.50
16893;DHT22;8563;52.242;9.098;2022-09-09T15:58:48;21.20;75.20
16893;DHT22;8563;52.242;9.098;2022-09-09T16:01:24;21.20;75.50
16893;DHT22;8563;52.242;9.098;2022-09-09T16:03:57;21.10;75.00
16893;DHT22;8563;52.242;9.098;2022-09-09T16:06:30;21.20;75.60
16893;DHT22;8563;52.242;9.098;2022-09-09T16:09:05;21.20;75.70
16893;DHT22;8563;52.242;9.098;2022-09-09T16:11:39;21.20;76.20
16893;DHT22;8563;52.242;9.098;2022-09-09T16:14:11;21.20;76.10
16893;DHT22;8563;52.242;9.098;2022-09-09T16:16:44;21.20;76.10
16893;DHT22;8563;52.242;9.098;2022-09-09T16:19:19;21.20;77.30
16893;DHT22;8563;52.242;9.098;2022-09-09T16:21:55;21.30;76.70
16893;DHT22;8563;52.242;9.098;2022-09-09T16:24:27;21.30;80.50
16893;DHT22;8563;52.242;9.098;2022-09-09T16:27:01;21.40;83.30
16893;DHT22;8563;52.242;9.098;2022-09-09T16:29:33;21.30;84.20
16893;DHT22;8563;52.242;9.098;2022-09-09T16:32:06;21.30;84.50
16893;DHT22;8563;52.242;9.098;2022-09-09T16:34:39;21.40;85.00
16893;DHT22;8563;52.242;9.098;2022-09-09T16:37:13;21.40;86.30
16893;DHT22;8563;52.242;9.098;2022-09-09T16:39:46;21.30;88.60
16893;DHT22;8563;52.242;9.098;2022-09-09T16:42:19;21.20;90.70
16893;DHT22;8563;52.242;9.098;2022-09-09T16:44:52;21.00;91.70
16893;DHT22;8563;52.242;9.098;2022-09-09T16:47:24;20.80;92.30
16893;DHT22;8563;52.242;9.098;2022-09-09T16:49:56;20.70;93.20
16893;DHT22;8563;52.242;9.098;2022-09-09T16:52:29;20.50;93.30
16893;DHT22;8563;52.242;9.098;2022-09-09T16:55:01;20.40;93.50
16893;DHT22;8563;52.242;9.098;2022-09-09T16:57:35;20.30;93.10
16893;DHT22;8563;52.242;9.098;2022-09-09T17:00:08;20.20;93.60
16893;DHT22;8563;52.242;9.098;2022-09-09T17:02:41;20.10;93.60